Time;durP1;ratioP1;P1;durP2;ratioP2;P2;SDS_P1;SDS_P2;PMS_P1;PMS_P2;Temp;Humidity;BMP_temperature;BMP_pressure;BME280_temperature;BME280_humidity;BME280_pressure;Samples;Min_cycle;Max_cycle;Signal;HPM_P1;HPM_P2
2023/03/03 00:00:35;;;;;;;11.95;8.73;;;17.50;36.50;;;;;;5088434;28;45308;-71
2023/03/03 00:03:04;;;;;;;12.82;8.65;;;17.50;36.40;;;;;;5087982;28;45444;-71
2023/03/03 00:05:32;;;;;;;11.20;8.35;;;17.50;36.30;;;;;;5088235;28;45333;-73
2023/03/03 00:07:59;;;;;;;10.32;7.40;;;17.60;36.20;;;;;;5087997;28;45494;-71
2023/03/03 00:10:26;;;;;;;12.07;7.82;;;17.60;36.20;;;;;;5087326;28;45317;-71
2023/03/03 00:12:53;;;;;;;10.95;7.93;;;17.60;36.00;;;;;;5087986;28;45336;-71
2023/03/03 00:15:22;;;;;;;14.32;8.57;;;17.70;35.90;;;;;;5087645;28;45526;-71
2023/03/03 00:17:49;;;;;;;11.50;8.13;;;17.70;35.90;;;;;;5087820;28;46390;-71
2023/03/03 00:20:36;;;;;;;12.93;8.48;;;17.80;35.80;;;;;;5087826;28;45328;-70
2023/03/03 00:23:16;;;;;;;11.95;8.00;;;17.80;35.80;;;;;;5087875;28;45338;-71
2023/03/03 00:25:43;;;;;;;12.18;7.88;;;17.80;35.60;;;;;;5087964;28;45534;-71
2023/03/03 00:28:19;;;;;;;12.35;8.48;;;17.80;35.50;;;;;;5087575;28;46365;-71
2023/03/03 00:30:47;;;;;;;12.75;7.78;;;17.80;35.50;;;;;;5087491;28;45377;-71
2023/03/03 00:33:20;;;;;;;12.68;8.60;;;17.80;36.10;;;;;;5087893;28;45452;-73
2023/03/03 00:35:47;;;;;;;12.80;8.15;;;17.80;35.50;;;;;;5087927;28;45408;-71
2023/03/03 00:38:17;;;;;;;10.48;7.70;;;17.80;35.50;;;;;;5087572;28;45478;-73
2023/03/03 00:40:44;;;;;;;10.02;7.68;;;17.70;35.60;;;;;;5087520;28;45083;-71
2023/03/03 00:43:18;;;;;;;10.35;8.05;;;17.70;35.60;;;;;;5087750;28;45363;-71
2023/03/03 00:45:47;;;;;;;12.25;8.13;;;17.60;35.60;;;;;;5087609;28;45301;-73
2023/03/03 00:48:33;;;;;;;10.13;7.32;;;17.60;35.70;;;;;;5084669;28;45313;-71
2023/03/03 00:51:00;;;;;;;10.23;7.57;;;17.50;35.70;;;;;;5084841;28;45304;-71
2023/03/03 00:53:28;;;;;;;13.32;8.20;;;17.50;35.80;;;;;;5087302;28;45264;-71
2023/03/03 00:55:55;;;;;;;10.40;7.85;;;17.50;35.90;;;;;;5087872;28;45353;-71
2023/03/03 00:58:22;;;;;;;10.63;7.68;;;17.40;35.90;;;;;;5087158;28;46416;-71
2023/03/03 01:00:51;;;;;;;10.85;7.72;;;17.40;35.90;;;;;;5087636;28;45582;-71
2023/03/03 01:03:20;;;;;;;10.70;8.07;;;17.40;36.50;;;;;;5087043;28;45206;-71
2023/03/03 01:05:47;;;;;;;9.52;7.22;;;17.40;35.80;;;;;;5086937;28;45390;-71
2023/03/03 01:08:14;;;;;;;11.18;7.93;;;17.50;36.40;;;;;;5087648;28;45321;-71
2023/03/03 01:10:43;;;;;;;10.73;7.20;;;17.50;35.60;;;;;;5087028;28;45354;-71
2023/03/03 01:13:10;;;;;;;9.93;6.82;;;17.60;35.60;;;;;;5087333;28;45391;-71
2023/03/03 01:15:38;;;;;;;10.13;7.78;;;17.60;35.40;;;;;;5086878;28;45419;-73
2023/03/03 01:18:06;;;;;;;10.05;7.30;;;17.70;35.30;;;;;;5086970;28;46200;-71
2023/03/03 01:20:33;;;;;;;10.70;7.15;;;17.80;35.10;;;;;;5086286;28;45258;-71
2023/03/03 01:23:00;;;;;;;11.60;7.90;;;17.90;35.00;;;;;;5087268;28;45281;-71
2023/03/03 01:25:27;;;;;;;9.68;7.50;;;17.90;34.90;;;;;;5086919;28;45427;-70
2023/03/03 01:27:53;;;;;;;10.32;7.78;;;17.90;34.80;;;;;;5086953;28;45436;-71
2023/03/03 01:30:21;;;;;;;12.05;7.60;;;17.90;34.80;;;;;;5087010;28;45301;-71
2023/03/03 01:32:47;;;;;;;11.00;7.82;;;17.90;34.90;;;;;;5086971;28;45324;-71
2023/03/03 01:35:16;;;;;;;11.82;8.15;;;17.90;34.90;;;;;;5086947;28;45250;-71
2023/03/03 01:37:42;;;;;;;11.18;7.55;;;17.80;34.90;;;;;;5086770;28;46389;-71
2023/03/03 01:40:14;;;;;;;10.68;7.50;;;17.80;34.90;;;;;;5086870;28;45423;-71
2023/03/03 01:42:40;;;;;;;11.18;8.02;;;17.80;35.00;;;;;;5086831;28;45205;-71
2023/03/03 01:45:12;;;;;;;12.63;8.48;;;17.70;35.00;;;;;;5087106;28;45317;-71
2023/03/03 01:47:39;;;;;;;12.07;8.18;;;17.60;35.00;;;;;;5086524;28;45255;-73
2023/03/03 01:50:10;;;;;;;11.10;7.57;;;17.60;35.10;;;;;;5086537;28;45417;-71
2023/03/03 01:52:38;;;;;;;10.38;7.28;;;17.50;35.20;;;;;;5086374;28;45250;-71
2023/03/03 01:55:08;;;;;;;10.45;7.63;;;17.50;35.30;;;;;;5086466;28;45180;-71
2023/03/03 01:57:37;;;;;;;11.23;8.02;;;17.40;35.30;;;;;;5086172;28;47011;-71
2023/03/03 02:00:05;;;;;;;10.10;7.43;;;17.40;35.40;;;;;;5086335;28;45392;-71
2023/03/03 02:02:32;;;;;;;11.57;7.82;;;17.40;35.50;;;;;;5083906;28;45394;-71
2023/03/03 02:04:59;;;;;;;11.43;8.07;;;17.40;35.40;;;;;;5086458;28;45423;-71
2023/03/03 02:07:26;;;;;;;10.18;7.72;;;17.40;35.50;;;;;;5086062;28;45447;-70
2023/03/03 02:09:56;;;;;;;10.77;7.72;;;17.40;35.40;;;;;;5085635;28;45296;-71
2023/03/03 02:12:26;;;;;;;9.77;7.05;;;17.40;35.30;;;;;;5086672;28;45304;-71
2023/03/03 02:14:53;;;;;;;10.18;7.15;;;17.50;35.20;;;;;;5086491;28;45284;-71
2023/03/03 02:17:20;;;;;;;11.50;7.40;;;17.50;35.10;;;;;;5089868;28;46694;-71
2023/03/03 02:19:50;;;;;;;10.38;7.40;;;17.60;35.10;;;;;;5089587;28;45343;-70
2023/03/03 02:22:18;;;;;;;11.27;7.13;;;17.70;34.90;;;;;;5089706;28;45330;-71
2023/03/03 02:24:46;;;;;;;11.00;7.78;;;17.70;34.80;;;;;;5090054;28;45325;-71
2023/03/03 02:27:14;;;;;;;11.73;8.25;;;17.80;34.70;;;;;;5089486;28;45241;-71
2023/03/03 02:29:41;;;;;;;12.23;7.60;;;17.80;34.60;;;;;;5089624;28;45328;-72
2023/03/03 02:32:08;;;;;;;8.52;7.15;;;17.80;34.50;;;;;;5089570;28;45302;-70
2023/03/03 02:34:47;;;;;;;11.40;8.20;;;17.80;34.50;;;;;;5089924;28;45144;-71
2023/03/03 02:37:14;;;;;;;10.55;7.50;;;17.80;34.50;;;;;;5089656;28;45476;-71
2023/03/03 02:39:41;;;;;;;11.82;7.55;;;17.80;34.50;;;;;;5089461;28;45260;-71
2023/03/03 02:42:09;;;;;;;10.02;7.13;;;17.70;34.60;;;;;;5089441;28;45323;-71
2023/03/03 02:44:38;;;;;;;10.05;7.72;;;17.70;34.60;;;;;;5089758;28;45438;-71
2023/03/03 02:47:05;;;;;;;10.05;7.18;;;17.60;34.70;;;;;;5089309;28;45512;-72
2023/03/03 02:49:33;;;;;;;10.40;7.75;;;17.60;34.70;;;;;;5089134;28;45305;-71
2023/03/03 02:51:59;;;;;;;10.27;7.43;;;17.50;34.80;;;;;;5089410;28;45269;-71
2023/03/03 02:54:27;;;;;;;10.45;7.63;;;17.50;34.90;;;;;;5089521;28;45219;-71
2023/03/03 02:56:54;;;;;;;9.25;7.45;;;17.40;35.00;;;;;;5089010;28;46972;-70
2023/03/03 02:59:21;;;;;;;11.65;7.82;;;17.40;35.00;;;;;;5088333;28;45436;-71
2023/03/03 03:01:49;;;;;;;11.30;7.68;;;17.30;35.10;;;;;;5089034;28;45340;-71
2023/03/03 03:04:17;;;;;;;12.82;7.75;;;17.30;35.20;;;;;;5089319;28;45401;-71
2023/03/03 03:06:44;;;;;;;9.73;6.88;;;17.30;35.10;;;;;;5088724;28;45357;-71
2023/03/03 03:09:11;;;;;;;10.77;7.72;;;17.30;35.10;;;;;;5088977;28;45306;-71
2023/03/03 03:11:38;;;;;;;10.57;8.10;;;17.40;35.00;;;;;;5089258;28;45256;-70
2023/03/03 03:14:05;;;;;;;11.70;7.50;;;17.40;34.90;;;;;;5088971;28;45246;-70
2023/03/03 03:16:32;;;;;;;8.77;7.05;;;17.40;34.80;;;;;;5088910;28;45249;-71
2023/03/03 03:19:00;;;;;;;9.45;7.45;;;17.50;34.80;;;;;;5089100;28;45410;-71
2023/03/03 03:21:27;;;;;;;11.23;7.78;;;17.60;34.70;;;;;;5088378;28;45234;-72
2023/03/03 03:23:54;;;;;;;8.30;6.85;;;17.60;35.10;;;;;;5088540;28;45403;-72
2023/03/03 03:26:21;;;;;;;10.55;7.22;;;17.70;34.50;;;;;;5087547;28;45576;-71
2023/03/03 03:28:48;;;;;;;9.25;7.13;;;17.70;34.40;;;;;;5086897;28;45339;-71
2023/03/03 03:31:15;;;;;;;11.27;7.60;;;17.70;34.40;;;;;;5087972;28;45309;-71
2023/03/03 03:33:42;;;;;;;10.18;7.18;;;17.70;34.30;;;;;;5088181;28;45308;-71
2023/03/03 03:36:10;;;;;;;12.30;8.10;;;17.70;34.30;;;;;;5085240;28;45313;-71
2023/03/03 03:38:37;;;;;;;9.68;7.50;;;17.70;34.30;;;;;;5087794;28;45397;-72
2023/03/03 03:41:04;;;;;;;10.38;7.32;;;17.70;34.30;;;;;;5088029;28;45395;-71
2023/03/03 03:43:31;;;;;;;11.30;7.68;;;17.60;34.30;;;;;;5088174;28;45408;-71
2023/03/03 03:45:58;;;;;;;9.85;7.45;;;17.60;34.40;;;;;;5087496;28;46645;-71
2023/03/03 03:48:25;;;;;;;12.70;8.25;;;17.60;34.50;;;;;;5088180;28;45269;-71
2023/03/03 03:50:52;;;;;;;11.45;7.90;;;17.50;34.40;;;;;;5087911;28;45461;-71
2023/03/03 03:53:20;;;;;;;10.60;7.63;;;17.50;34.50;;;;;;5088287;28;45408;-71
2023/03/03 03:55:47;;;;;;;10.82;7.28;;;17.40;34.60;;;;;;5087427;28;46404;-71
2023/03/03 03:58:14;;;;;;;10.20;7.72;;;17.40;34.70;;;;;;5087451;28;45327;-71
2023/03/03 04:00:41;;;;;;;9.55;7.35;;;17.30;34.80;;;;;;5087633;28;45253;-73
2023/03/03 04:03:08;;;;;;;11.50;7.65;;;17.20;34.80;;;;;;5087787;28;45551;-71
2023/03/03 04:05:35;;;;;;;12.55;7.43;;;17.20;35.10;;;;;;5086879;28;45396;-71
2023/03/03 04:08:02;;;;;;;9.73;7.18;;;17.30;34.80;;;;;;5087029;28;45312;-71
2023/03/03 04:10:30;;;;;;;10.35;6.85;;;17.30;34.70;;;;;;5087036;28;45258;-71
2023/03/03 04:12:57;;;;;;;10.82;7.47;;;17.40;35.30;;;;;;5087313;28;45352;-71
2023/03/03 04:15:24;;;;;;;9.85;7.75;;;17.40;34.60;;;;;;5086656;28;45349;-71
2023/03/03 04:17:51;;;;;;;9.57;6.88;;;17.40;34.40;;;;;;5087334;28;45366;-71
2023/03/03 04:20:18;;;;;;;10.50;6.90;;;17.50;34.40;;;;;;5087801;28;45304;-71
2023/03/03 04:22:45;;;;;;;10.15;7.03;;;17.60;34.30;;;;;;5087662;28;45348;-71
2023/03/03 04:25:12;;;;;;;9.93;7.07;;;17.60;34.20;;;;;;5087431;28;46699;-71
2023/03/03 04:27:42;;;;;;;10.38;7.50;;;17.70;34.70;;;;;;5087107;28;45280;-72
2023/03/03 04:30:13;;;;;;;9.27;6.43;;;17.70;34.00;;;;;;5087626;28;45341;-71
2023/03/03 04:32:40;;;;;;;8.77;7.13;;;17.70;34.00;;;;;;5087123;28;45483;-71
2023/03/03 04:35:07;;;;;;;11.30;7.45;;;17.70;34.00;;;;;;5087095;28;46981;-71
2023/03/03 04:37:34;;;;;;;10.55;7.15;;;17.70;34.00;;;;;;5087196;28;45325;-71
2023/03/03 04:40:01;;;;;;;11.52;7.22;;;17.70;33.90;;;;;;5085882;27;45377;-71
2023/03/03 04:42:28;;;;;;;10.52;7.35;;;17.70;34.00;;;;;;5087318;28;45483;-71
2023/03/03 04:44:56;;;;;;;11.25;7.05;;;17.70;34.00;;;;;;5086725;28;46395;-71
2023/03/03 04:47:23;;;;;;;10.60;6.68;;;17.60;34.00;;;;;;5086630;28;45303;-72
2023/03/03 04:49:49;;;;;;;9.23;7.30;;;17.60;34.10;;;;;;5086753;28;45365;-71
2023/03/03 04:52:16;;;;;;;10.65;7.22;;;17.50;34.10;;;;;;5086968;28;45401;-72
2023/03/03 04:54:43;;;;;;;11.32;6.75;;;17.50;34.20;;;;;;5086190;28;46402;-72
2023/03/03 04:57:10;;;;;;;8.90;6.90;;;17.40;34.30;;;;;;5086378;28;45365;-71
2023/03/03 04:59:37;;;;;;;9.48;7.32;;;17.40;34.40;;;;;;5086799;28;45278;-71
2023/03/03 05:02:05;;;;;;;10.80;7.30;;;17.30;34.50;;;;;;5086842;28;45310;-72
2023/03/03 05:04:32;;;;;;;11.15;7.22;;;17.30;34.60;;;;;;5086556;28;46275;-73
2023/03/03 05:06:59;;;;;;;9.57;6.75;;;17.20;34.60;;;;;;5086518;28;45328;-71
2023/03/03 05:09:26;;;;;;;10.05;6.85;;;17.30;34.60;;;;;;5086896;28;45289;-73
2023/03/03 05:11:53;;;;;;;9.65;6.97;;;17.30;34.60;;;;;;5086880;28;45326;-71
2023/03/03 05:14:19;;;;;;;9.77;7.10;;;17.30;34.60;;;;;;5085992;28;46497;-71
2023/03/03 05:16:46;;;;;;;9.15;6.93;;;17.40;34.50;;;;;;5086617;28;45415;-71
2023/03/03 05:19:15;;;;;;;10.07;6.93;;;17.40;34.40;;;;;;5086849;28;45267;-71
2023/03/03 05:21:41;;;;;;;10.93;7.00;;;17.50;34.40;;;;;;5087452;28;45379;-71
2023/03/03 05:24:08;;;;;;;9.55;6.97;;;17.50;34.30;;;;;;5087169;28;45297;-73
2023/03/03 05:26:35;;;;;;;10.30;6.70;;;17.50;34.30;;;;;;5087367;28;45222;-70
2023/03/03 05:29:02;;;;;;;10.30;6.47;;;17.60;34.30;;;;;;5087512;28;45251;-71
2023/03/03 05:31:29;;;;;;;11.13;6.72;;;17.60;34.30;;;;;;5087388;28;45225;-71
2023/03/03 05:33:55;;;;;;;11.13;7.30;;;17.60;34.20;;;;;;5086952;28;46383;-71
2023/03/03 05:36:24;;;;;;;10.32;6.93;;;17.60;34.20;;;;;;5086326;28;45332;-71
2023/03/03 05:38:50;;;;;;;8.82;6.28;;;17.60;34.20;;;;;;5086674;28;45373;-71
2023/03/03 05:41:17;;;;;;;11.57;7.18;;;17.60;34.20;;;;;;5086453;28;45669;-74
2023/03/03 05:43:44;;;;;;;9.95;6.95;;;17.60;34.20;;;;;;5086197;28;45615;-71
2023/03/03 05:46:11;;;;;;;9.40;6.97;;;17.60;34.30;;;;;;5086152;28;45378;-72
2023/03/03 05:48:38;;;;;;;9.85;6.65;;;17.60;34.30;;;;;;5086428;28;45241;-71
2023/03/03 05:51:05;;;;;;;7.97;6.50;;;17.50;34.30;;;;;;5088511;27;45308;-71
2023/03/03 05:53:34;;;;;;;8.70;6.50;;;17.50;34.40;;;;;;5089786;28;46567;-73
2023/03/03 05:56:00;;;;;;;10.70;6.95;;;17.50;34.40;;;;;;5089830;28;45442;-71
2023/03/03 05:58:27;;;;;;;9.13;7.03;;;17.50;34.50;;;;;;5090060;28;45315;-72
2023/03/03 06:00:54;;;;;;;10.00;7.25;;;17.40;34.60;;;;;;5090054;28;45301;-71
2023/03/03 06:03:21;;;;;;;9.27;6.82;;;17.40;34.60;;;;;;5089317;28;47125;-71
2023/03/03 06:05:48;;;;;;;10.70;6.97;;;17.30;34.70;;;;;;5086689;28;45282;-70
2023/03/03 06:08:15;;;;;;;9.43;7.18;;;17.30;34.70;;;;;;5089677;28;45291;-71
2023/03/03 06:10:43;;;;;;;9.90;7.03;;;17.30;34.80;;;;;;5089837;28;45435;-71
2023/03/03 06:13:10;;;;;;;9.07;6.32;;;17.40;34.70;;;;;;5088926;28;45468;-71
2023/03/03 06:15:37;;;;;;;8.77;6.70;;;17.40;34.70;;;;;;5089209;28;45192;-72
2023/03/03 06:18:04;;;;;;;9.18;6.47;;;17.40;34.60;;;;;;5089565;28;45340;-71
2023/03/03 06:20:31;;;;;;;9.10;6.70;;;17.40;34.60;;;;;;5089475;28;45437;-72
2023/03/03 06:22:58;;;;;;;8.43;6.55;;;17.50;34.60;;;;;;5088839;28;46695;-71
2023/03/03 06:25:25;;;;;;;10.40;7.28;;;17.50;34.60;;;;;;5089274;28;45347;-71
2023/03/03 06:27:53;;;;;;;10.85;6.68;;;17.50;34.60;;;;;;5089122;28;45177;-71
2023/03/03 06:30:20;;;;;;;10.35;6.97;;;17.50;34.50;;;;;;5089356;28;45456;-71
2023/03/03 06:32:47;;;;;;;9.30;6.82;;;17.50;34.60;;;;;;5088801;28;46348;-71
2023/03/03 06:35:14;;;;;;;10.85;7.13;;;17.50;34.60;;;;;;5089088;28;45312;-71
2023/03/03 06:37:41;;;;;;;9.02;6.40;;;17.50;34.60;;;;;;5089065;28;45327;-71
2023/03/03 06:40:09;;;;;;;9.57;6.80;;;17.50;34.60;;;;;;5089309;28;45512;-72
2023/03/03 06:42:36;;;;;;;9.50;6.72;;;17.50;34.60;;;;;;5088689;28;45385;-71
2023/03/03 06:45:05;;;;;;;8.43;7.15;;;17.50;34.60;;;;;;5088777;28;45154;-70
2023/03/03 06:47:32;;;;;;;9.50;6.85;;;17.50;34.60;;;;;;5089058;28;45302;-72
2023/03/03 06:49:59;;;;;;;9.95;6.55;;;17.50;34.70;;;;;;5088792;28;45486;-71
2023/03/03 06:52:27;;;;;;;12.25;7.22;;;17.50;34.70;;;;;;5088686;28;45361;-71
2023/03/03 06:54:54;;;;;;;10.63;7.38;;;17.50;34.80;;;;;;5088421;28;45288;-70
2023/03/03 06:57:25;;;;;;;9.68;7.20;;;17.40;34.80;;;;;;5088573;28;45340;-72
2023/03/03 06:59:53;;;;;;;9.80;7.53;;;17.40;34.80;;;;;;5088705;28;45439;-71
2023/03/03 07:02:21;;;;;;;9.05;6.70;;;17.40;34.80;;;;;;5087191;27;45384;-70
2023/03/03 07:04:48;;;;;;;9.02;7.07;;;17.40;34.80;;;;;;5088631;28;45388;-72
2023/03/03 07:07:17;;;;;;;10.38;7.47;;;17.40;34.90;;;;;;5087977;28;45342;-72
2023/03/03 07:09:44;;;;;;;9.00;7.07;;;17.30;35.00;;;;;;5088506;28;45258;-70
2023/03/03 07:12:13;;;;;;;10.30;7.32;;;17.30;35.00;;;;;;5087823;28;45304;-70
2023/03/03 07:14:41;;;;;;;10.50;7.07;;;17.30;35.10;;;;;;5086357;28;45304;-72
2023/03/03 07:17:11;;;;;;;10.90;6.63;;;17.20;35.10;;;;;;5088244;28;45329;-71
2023/03/03 07:19:40;;;;;;;10.73;7.00;;;17.20;35.10;;;;;;5088444;28;45700;-73
2023/03/03 07:22:12;;;;;;;10.98;6.82;;;17.20;35.30;;;;;;5087696;28;46335;-72
2023/03/03 07:24:39;;;;;;;11.93;7.55;;;17.10;35.30;;;;;;5088114;28;45359;-71
2023/03/03 07:27:10;;;;;;;10.25;6.80;;;17.10;35.40;;;;;;5088084;28;45315;-71
2023/03/03 07:29:40;;;;;;;10.57;6.43;;;17.10;35.40;;;;;;5088299;28;45422;-71
2023/03/03 07:32:12;;;;;;;9.07;6.68;;;17.10;35.50;;;;;;5087346;28;45476;-71
2023/03/03 07:34:43;;;;;;;9.85;6.88;;;17.00;35.60;;;;;;5087790;28;45390;-71
2023/03/03 07:37:12;;;;;;;9.68;7.05;;;17.00;35.70;;;;;;5087857;28;45269;-71
2023/03/03 07:39:39;;;;;;;11.10;7.40;;;16.90;35.70;;;;;;5087843;28;45293;-70
2023/03/03 07:42:19;;;;;;;12.73;7.30;;;16.90;35.80;;;;;;5086679;28;46408;-70
2023/03/03 07:44:47;;;;;;;11.88;7.30;;;16.90;35.90;;;;;;5080277;28;45359;-70
2023/03/03 07:47:20;;;;;;;12.30;7.15;;;16.90;35.90;;;;;;5082629;28;45482;-70
2023/03/03 07:49:48;;;;;;;9.43;6.78;;;16.80;36.20;;;;;;5085577;28;45173;-70
2023/03/03 07:52:23;;;;;;;10.50;6.75;;;16.80;36.10;;;;;;5087231;28;46663;-71
2023/03/03 07:54:51;;;;;;;10.82;7.07;;;16.80;36.20;;;;;;5087360;28;45432;-71
2023/03/03 07:57:21;;;;;;;9.40;6.90;;;16.70;36.20;;;;;;5087698;28;45339;-70
2023/03/03 07:59:48;;;;;;;9.70;6.82;;;16.70;36.30;;;;;;5087835;28;45375;-71
2023/03/03 08:02:46;;;;;;;9.50;6.65;;;16.60;36.30;;;;;;5087293;28;45344;-70
2023/03/03 08:05:31;;;;;;;10.10;7.13;;;16.60;36.40;;;;;;5066611;28;45278;-70
2023/03/03 08:08:12;;;;;;;9.60;6.57;;;16.60;36.40;;;;;;5087353;28;45325;-71
2023/03/03 08:10:42;;;;;;;8.55;6.25;;;16.60;36.50;;;;;;5087571;28;45475;-71
2023/03/03 08:13:14;;;;;;;9.10;6.57;;;16.50;36.50;;;;;;5086823;27;45397;-70
2023/03/03 08:15:41;;;;;;;9.98;6.63;;;16.50;36.60;;;;;;5086698;28;45440;-71
2023/03/03 08:18:16;;;;;;;10.75;6.90;;;16.50;36.60;;;;;;5087517;28;45380;-70
2023/03/03 08:20:48;;;;;;;9.70;6.18;;;16.50;36.70;;;;;;5087403;28;45546;-71
2023/03/03 08:23:16;;;;;;;11.27;6.68;;;16.40;36.80;;;;;;5086715;28;45551;-71
2023/03/03 08:25:43;;;;;;;8.80;6.18;;;16.40;36.80;;;;;;5087035;28;45369;-70
2023/03/03 08:28:10;;;;;;;9.85;7.00;;;16.40;36.80;;;;;;5087002;28;45376;-70
2023/03/03 08:30:37;;;;;;;10.20;7.55;;;16.40;36.90;;;;;;5087117;28;45226;-70
2023/03/03 08:33:04;;;;;;;8.98;6.38;;;16.30;36.90;;;;;;5086169;28;45519;-70
2023/03/03 08:35:31;;;;;;;9.90;6.82;;;16.30;37.60;;;;;;5086749;28;45315;-70
2023/03/03 08:37:59;;;;;;;11.30;6.65;;;16.30;37.60;;;;;;5086839;28;45277;-73
2023/03/03 08:40:26;;;;;;;8.43;6.15;;;16.30;37.00;;;;;;5086987;28;45238;-70
2023/03/03 08:42:54;;;;;;;12.00;7.13;;;16.30;37.10;;;;;;5086475;28;46397;-71
2023/03/03 08:45:20;;;;;;;9.90;6.22;;;16.30;37.20;;;;;;5086514;28;45424;-70
2023/03/03 08:47:47;;;;;;;10.38;7.15;;;16.20;37.10;;;;;;5086764;28;45328;-72
2023/03/03 08:50:14;;;;;;;10.18;6.40;;;16.20;37.20;;;;;;5087018;28;45244;-71
2023/03/03 08:52:41;;;;;;;11.82;7.25;;;16.20;37.30;;;;;;5086137;28;45503;-70
2023/03/03 08:55:10;;;;;;;8.80;6.32;;;16.10;37.30;;;;;;5086537;28;45206;-71
2023/03/03 08:57:37;;;;;;;10.60;6.90;;;16.20;37.40;;;;;;5086502;28;45308;-72
2023/03/03 09:00:06;;;;;;;10.00;6.90;;;16.20;37.40;;;;;;5086745;28;44797;-70
2023/03/03 09:02:33;;;;;;;9.90;6.50;;;16.10;37.40;;;;;;5086266;28;46305;-71
2023/03/03 09:04:59;;;;;;;10.38;6.72;;;16.10;37.40;;;;;;5085433;28;45448;-70
2023/03/03 09:07:26;;;;;;;9.13;7.00;;;16.10;37.50;;;;;;5083476;28;45404;-70
2023/03/03 09:09:53;;;;;;;11.23;6.70;;;16.10;37.50;;;;;;5086229;27;45416;-70
2023/03/03 09:12:25;;;;;;;10.88;6.82;;;16.00;37.60;;;;;;5085974;27;46636;-70
2023/03/03 09:14:51;;;;;;;8.20;6.50;;;16.10;37.70;;;;;;5085471;27;45458;-72
2023/03/03 09:17:25;;;;;;;11.23;6.72;;;16.00;37.60;;;;;;5086319;27;45297;-71
2023/03/03 09:19:52;;;;;;;9.45;6.10;;;16.00;37.70;;;;;;5086110;27;45430;-71
2023/03/03 09:22:20;;;;;;;10.52;6.43;;;16.00;37.70;;;;;;5085879;28;45367;-71
2023/03/03 09:24:47;;;;;;;9.98;6.40;;;16.00;37.80;;;;;;5085502;27;45309;-70
2023/03/03 09:27:15;;;;;;;7.97;5.85;;;16.00;37.80;;;;;;5086152;27;45237;-70
2023/03/03 09:29:43;;;;;;;10.05;6.60;;;16.00;37.80;;;;;;5086133;27;45399;-70
2023/03/03 09:32:21;;;;;;;8.07;6.30;;;16.00;37.80;;;;;;5085664;27;45658;-70
2023/03/03 09:34:48;;;;;;;10.13;6.50;;;16.00;37.90;;;;;;5086011;27;45264;-70
2023/03/03 09:37:18;;;;;;;8.57;6.15;;;16.00;37.90;;;;;;5086098;27;45403;-72
2023/03/03 09:39:46;;;;;;;8.70;6.85;;;15.90;37.90;;;;;;5086232;27;45395;-70
2023/03/03 09:42:34;;;;;;;9.05;6.43;;;15.90;37.90;;;;;;5085487;27;45333;-70
2023/03/03 09:45:14;;;;;;;10.73;6.18;;;15.90;38.00;;;;;;5085692;27;45404;-71
2023/03/03 09:47:56;;;;;;;8.75;5.90;;;15.90;38.00;;;;;;5085716;27;44686;-70
2023/03/03 09:50:28;;;;;;;9.65;6.15;;;15.90;38.00;;;;;;5085930;27;45388;-71
2023/03/03 09:53:00;;;;;;;11.35;6.15;;;15.90;38.10;;;;;;5085581;27;45399;-72
2023/03/03 09:55:34;;;;;;;10.07;6.72;;;15.90;38.10;;;;;;5085750;27;45260;-71
2023/03/03 09:58:09;;;;;;;9.50;6.43;;;15.90;38.10;;;;;;5085725;27;45275;-70
2023/03/03 10:00:41;;;;;;;8.38;6.38;;;15.90;38.10;;;;;;5085489;27;45193;-71
2023/03/03 10:03:37;;;;;;;10.40;6.85;;;15.90;38.80;;;;;;5085014;27;46422;-70
2023/03/03 10:06:07;;;;;;;9.82;6.57;;;15.80;38.10;;;;;;5057016;27;45557;-71
2023/03/03 10:08:43;;;;;;;8.45;6.30;;;15.80;38.10;;;;;;5085377;27;45272;-70
2023/03/03 10:11:15;;;;;;;8.90;6.25;;;15.80;38.20;;;;;;5083548;27;44791;-70
2023/03/03 10:13:50;;;;;;;9.30;6.40;;;15.80;38.20;;;;;;5083151;28;46384;-71
2023/03/03 10:16:36;;;;;;;9.52;6.05;;;15.80;38.20;;;;;;5085025;28;45249;-71
2023/03/03 10:19:04;;;;;;;8.43;6.25;;;15.80;38.20;;;;;;5100054;27;45304;-71
2023/03/03 10:21:36;;;;;;;10.40;6.65;;;15.80;38.30;;;;;;5105981;27;45399;-72
2023/03/03 10:24:06;;;;;;;9.82;6.50;;;15.80;38.30;;;;;;5094345;27;45491;-72
2023/03/03 10:26:43;;;;;;;11.45;6.90;;;15.80;38.30;;;;;;5085356;28;45270;-72
2023/03/03 10:29:15;;;;;;;8.93;6.25;;;15.80;38.30;;;;;;5085188;28;45352;-71
2023/03/03 10:31:53;;;;;;;10.82;7.13;;;15.90;38.90;;;;;;5083818;28;45591;-70
2023/03/03 10:34:31;;;;;;;9.02;6.68;;;15.90;38.30;;;;;;5084042;27;46298;-73
2023/03/03 10:36:59;;;;;;;9.23;6.30;;;15.90;38.30;;;;;;5085497;27;45321;-73
2023/03/03 10:39:40;;;;;;;10.48;6.70;;;15.90;38.30;;;;;;5088825;28;45316;-71
2023/03/03 10:42:14;;;;;;;9.10;6.75;;;15.90;38.30;;;;;;5088574;28;45203;-71
2023/03/03 10:44:51;;;;;;;11.02;7.00;;;15.90;38.20;;;;;;5088205;28;45273;-73
2023/03/03 10:47:50;;;;;;;9.05;6.72;;;15.90;38.20;;;;;;5088458;28;45285;-76
2023/03/03 10:50:21;;;;;;;9.48;6.57;;;16.00;38.30;;;;;;5079624;28;45374;-73
2023/03/03 10:52:50;;;;;;;11.70;7.35;;;16.00;38.20;;;;;;5088542;28;45296;-72
2023/03/03 10:55:48;;;;;;;11.35;7.25;;;16.00;38.30;;;;;;5088403;28;45317;-70
2023/03/03 10:58:48;;;;;;;10.18;6.88;;;16.00;38.30;;;;;;5032556;28;45343;-72
2023/03/03 11:01:22;;;;;;;11.68;7.03;;;16.00;38.30;;;;;;5062347;28;45320;-72
2023/03/03 11:04:25;;;;;;;11.07;7.40;;;16.00;38.30;;;;;;5088050;28;45510;-70
2023/03/03 11:06:55;;;;;;;11.85;7.07;;;16.00;38.40;;;;;;5087700;28;46425;-71
2023/03/03 11:09:36;;;;;;;9.80;7.07;;;16.00;38.40;;;;;;5074778;27;45324;-71
2023/03/03 11:12:07;;;;;;;10.70;6.65;;;16.00;38.40;;;;;;5067735;28;45517;-73
2023/03/03 11:14:39;;;;;;;9.23;6.57;;;16.00;38.40;;;;;;5073253;28;45575;-73
2023/03/03 11:17:09;;;;;;;11.75;7.40;;;16.00;38.40;;;;;;5088034;28;46405;-73
2023/03/03 11:19:46;;;;;;;10.55;7.07;;;16.00;38.40;;;;;;5085555;28;45317;-73
2023/03/03 11:22:20;;;;;;;9.13;6.80;;;16.10;38.30;;;;;;5080119;28;45427;-73
2023/03/03 11:24:53;;;;;;;12.40;7.10;;;16.20;38.20;;;;;;5074284;28;45340;-70
2023/03/03 11:27:26;;;;;;;12.23;6.90;;;16.20;38.20;;;;;;5083294;28;46223;-70
2023/03/03 11:30:03;;;;;;;12.07;7.80;;;16.20;38.20;;;;;;5087487;28;45382;-72
2023/03/03 11:32:36;;;;;;;13.35;7.22;;;16.20;38.10;;;;;;5087036;27;45413;-71
2023/03/03 11:35:16;;;;;;;12.88;7.00;;;16.30;38.10;;;;;;5074658;28;45582;-72
2023/03/03 11:37:46;;;;;;;12.95;6.72;;;16.30;38.20;;;;;;5067670;28;47476;-71
2023/03/03 11:40:16;;;;;;;10.30;7.60;;;16.20;38.20;;;;;;5086253;28;45690;-71
2023/03/03 11:43:00;;;;;;;12.75;7.85;;;16.20;38.30;;;;;;5087503;28;45331;-71
2023/03/03 11:45:29;;;;;;;12.18;7.50;;;16.20;38.40;;;;;;5087642;28;45296;-72
2023/03/03 11:48:01;;;;;;;9.10;6.82;;;16.20;38.50;;;;;;5086795;27;45447;-71
2023/03/03 11:50:32;;;;;;;12.40;7.47;;;16.20;38.60;;;;;;5087117;28;45282;-72
2023/03/03 11:53:08;;;;;;;11.90;7.38;;;16.20;38.50;;;;;;5087901;28;45372;-72
2023/03/03 11:55:40;;;;;;;13.10;7.25;;;16.20;38.60;;;;;;5087970;28;45327;-72
2023/03/03 11:58:13;;;;;;;10.30;6.90;;;16.30;38.50;;;;;;5086219;28;45575;-71
2023/03/03 12:00:43;;;;;;;12.15;7.28;;;16.30;38.40;;;;;;5086559;28;45301;-71
2023/03/03 12:03:24;;;;;;;10.48;6.95;;;16.30;38.40;;;;;;5084431;28;45461;-74
2023/03/03 12:05:56;;;;;;;11.48;7.55;;;16.30;38.40;;;;;;5067103;28;45414;-74
2023/03/03 12:08:39;;;;;;;15.93;8.05;;;16.30;39.00;;;;;;5066780;28;46816;-75
2023/03/03 12:11:08;;;;;;;13.80;7.35;;;16.30;38.50;;;;;;5066685;28;45328;-74
2023/03/03 12:13:42;;;;;;;11.50;7.15;;;16.30;38.40;;;;;;5066972;28;45393;-74
2023/03/03 12:16:12;;;;;;;11.95;6.93;;;16.30;38.40;;;;;;5076172;28;45233;-72
2023/03/03 12:19:01;;;;;;;10.93;7.22;;;16.30;38.50;;;;;;5087209;28;46475;-72
2023/03/03 12:21:45;;;;;;;12.05;7.80;;;16.30;38.40;;;;;;5083597;28;45289;-73
2023/03/03 12:24:31;;;;;;;11.93;7.07;;;16.30;38.40;;;;;;5083841;28;45227;-73
2023/03/03 12:27:03;;;;;;;12.43;7.78;;;16.30;38.30;;;;;;5070785;28;45298;-73
2023/03/03 12:29:34;;;;;;;11.27;7.35;;;16.40;38.20;;;;;;5070096;28;45385;-72
2023/03/03 12:32:04;;;;;;;10.40;7.20;;;16.40;38.20;;;;;;5085050;28;45254;-73
2023/03/03 12:34:40;;;;;;;14.25;7.43;;;16.60;38.00;;;;;;5086706;28;45182;-72
2023/03/03 12:37:37;;;;;;;11.73;6.95;;;16.70;37.70;;;;;;5084596;28;45342;-72
2023/03/03 12:40:08;;;;;;;11.07;7.25;;;16.90;38.20;;;;;;5080139;28;45485;-73
2023/03/03 12:42:57;;;;;;;12.80;7.88;;;16.90;37.40;;;;;;5086485;28;45440;-73
2023/03/03 12:45:31;;;;;;;10.38;7.13;;;16.90;37.40;;;;;;5086886;28;45311;-74
2023/03/03 12:48:00;;;;;;;11.85;7.65;;;16.90;37.40;;;;;;5087038;28;45432;-73
2023/03/03 12:50:32;;;;;;;11.70;7.40;;;16.90;37.30;;;;;;5086292;28;45457;-74
2023/03/03 12:53:04;;;;;;;13.35;7.72;;;16.90;37.40;;;;;;5083700;28;45322;-73
2023/03/03 12:55:37;;;;;;;11.75;7.45;;;16.90;38.20;;;;;;5086592;28;45233;-72